Van Buren, Arkansas
Current Conditions -  °F | °C
As of 9:53 PM on Thursday 18 Dec 2014 (Local Time) from KFSM Reporting Station
Overcast Overcast  
Wind Chill: 42°   Ceiling: 2300
Heat Index: 42°   Visibility: 9mi
Dew Point: 38°   Wind: 3mph
Humidity: 85%   Direction: 50°NE
Pressure: 30.23"   Gusts: NA
Location:  35.44°N, 94.35°W
Report Text: KFSM 190353Z 05003KT 9SM FEW015 OVC023 06/03 A3023 RMK AO2 SLP240 T00560033
Loading
Personal Weather Stations






























Interactive Weather Map New forecast layout! Learn more

10-Day Weather Forecast

Advertisements
Track Severe Weather on mobile